createdAt,value
2019-06-27T00:00:13.813Z,18.27
2019-06-27T00:02:43.478Z,18.43
2019-06-27T00:05:13.199Z,17.47
2019-06-27T00:07:42.343Z,17.90
2019-06-27T00:10:12.017Z,17.23
2019-06-27T00:12:41.431Z,16.80
2019-06-27T00:15:10.932Z,17.70
2019-06-27T00:17:40.422Z,16.70
2019-06-27T00:20:10.186Z,16.53
2019-06-27T00:22:41.284Z,17.10
2019-06-27T00:25:09.850Z,16.47
2019-06-27T00:27:38.820Z,17.57
2019-06-27T00:30:09.441Z,16.60
2019-06-27T00:32:38.741Z,17.33
2019-06-27T00:35:08.740Z,18.50
2019-06-27T00:37:37.856Z,17.57
2019-06-27T00:40:07.000Z,18.27
2019-06-27T00:42:36.516Z,17.83
2019-06-27T00:45:09.392Z,19.23
2019-06-27T00:47:38.501Z,18.07
2019-06-27T00:50:08.640Z,18.60
2019-06-27T00:52:37.635Z,19.00
2019-06-27T00:55:07.510Z,18.10
2019-06-27T00:57:36.931Z,18.20
2019-06-27T01:00:11.845Z,18.17
2019-06-27T01:02:41.200Z,18.17
2019-06-27T01:05:10.457Z,17.63
2019-06-27T01:07:40.156Z,18.53
2019-06-27T01:10:09.307Z,18.53
2019-06-27T01:12:38.444Z,19.03
2019-06-27T01:15:07.938Z,19.27
2019-06-27T01:17:37.221Z,19.23
2019-06-27T01:20:07.614Z,18.70
2019-06-27T01:22:37.017Z,18.40
2019-06-27T01:25:08.101Z,18.70
2019-06-27T01:27:37.552Z,18.43
2019-06-27T01:30:09.292Z,18.90
2019-06-27T01:32:38.379Z,18.17
2019-06-27T01:35:08.542Z,18.57
2019-06-27T01:37:37.683Z,18.07
2019-06-27T01:40:08.006Z,19.57
2019-06-27T01:42:36.962Z,19.23
2019-06-27T01:45:13.909Z,18.23
2019-06-27T01:47:43.557Z,19.90
2019-06-27T01:50:12.753Z,19.43
2019-06-27T01:52:41.778Z,18.70
2019-06-27T01:55:11.926Z,19.83
2019-06-27T01:57:46.476Z,19.33
2019-06-27T02:00:12.367Z,20.10
2019-06-27T02:02:41.544Z,18.33
2019-06-27T02:05:11.111Z,19.90
2019-06-27T02:07:40.423Z,19.33
2019-06-27T02:10:10.184Z,19.30
2019-06-27T02:12:40.032Z,20.07
2019-06-27T02:15:11.039Z,18.73
2019-06-27T02:17:40.195Z,18.70
2019-06-27T02:20:10.663Z,19.57
2019-06-27T02:22:39.819Z,20.40
2019-06-27T02:25:11.025Z,18.80
2019-06-27T02:27:40.484Z,18.77
2019-06-27T02:30:10.357Z,18.30
2019-06-27T02:32:39.624Z,19.23
2019-06-27T02:35:09.729Z,19.40
2019-06-27T02:37:38.722Z,17.90
2019-06-27T02:40:08.581Z,19.00
2019-06-27T02:42:37.707Z,19.50
2019-06-27T02:45:09.815Z,18.97
2019-06-27T02:47:39.508Z,18.83
2019-06-27T02:50:08.836Z,19.30
2019-06-27T02:52:38.346Z,19.40
2019-06-27T02:55:07.822Z,19.27
2019-06-27T02:57:36.982Z,19.30
2019-06-27T03:00:07.581Z,18.90
2019-06-27T03:02:38.339Z,19.47
2019-06-27T03:05:08.954Z,19.17
2019-06-27T03:07:38.198Z,19.60
2019-06-27T03:10:08.586Z,19.33
2019-06-27T03:12:37.668Z,20.13
2019-06-27T03:15:10.855Z,20.23
2019-06-27T03:17:41.601Z,19.63
2019-06-27T03:20:11.217Z,20.37
2019-06-27T03:22:40.342Z,20.60
2019-06-27T03:25:10.673Z,20.40
2019-06-27T03:27:39.877Z,20.87
2019-06-27T03:30:09.016Z,19.40
2019-06-27T03:32:38.300Z,21.27
2019-06-27T03:35:08.105Z,20.13
2019-06-27T03:37:37.581Z,19.97
2019-06-27T03:40:08.373Z,19.97
2019-06-27T03:42:37.527Z,20.10
2019-06-27T03:45:10.273Z,19.60
2019-06-27T03:47:39.464Z,19.80
2019-06-27T03:50:08.999Z,18.40
2019-06-27T03:52:38.340Z,20.03
2019-06-27T03:55:07.802Z,20.00
2019-06-27T03:57:37.400Z,19.70
2019-06-27T04:00:08.201Z,18.83
2019-06-27T04:02:37.608Z,19.83
2019-06-27T04:05:06.754Z,19.47
2019-06-27T04:07:36.269Z,19.20
2019-06-27T04:10:05.369Z,18.63
2019-06-27T04:12:34.434Z,20.00
2019-06-27T04:15:03.943Z,18.90
2019-06-27T04:17:33.306Z,18.63
2019-06-27T04:20:02.507Z,21.60
2019-06-27T04:22:31.573Z,19.67
2019-06-27T04:25:00.597Z,19.40
2019-06-27T04:27:29.780Z,19.80
2019-06-27T04:29:58.976Z,19.67
2019-06-27T04:32:28.041Z,19.63
2019-06-27T04:34:57.141Z,19.00
2019-06-27T04:37:26.286Z,19.80
2019-06-27T04:39:55.387Z,18.67
2019-06-27T04:42:24.476Z,19.17
2019-06-27T04:44:54.010Z,18.93
2019-06-27T04:47:23.199Z,17.87
2019-06-27T04:49:52.263Z,18.13
2019-06-27T04:52:22.015Z,19.27
2019-06-27T04:54:51.539Z,19.00
2019-06-27T04:57:20.575Z,17.83
2019-06-27T04:59:54.059Z,18.33
2019-06-27T05:02:20.154Z,18.53
2019-06-27T05:04:49.506Z,18.10
2019-06-27T05:07:19.039Z,18.40
2019-06-27T05:09:48.599Z,17.07
2019-06-27T05:12:17.774Z,17.37
2019-06-27T05:14:46.860Z,16.97
2019-06-27T05:17:16.047Z,16.93
2019-06-27T05:19:45.146Z,16.90
2019-06-27T05:22:14.156Z,16.80
2019-06-27T05:24:43.216Z,16.90
2019-06-27T05:27:12.181Z,17.53
2019-06-27T05:29:41.256Z,16.60
2019-06-27T05:32:10.373Z,15.78
2019-06-27T05:34:39.858Z,16.57
2019-06-27T05:37:09.226Z,16.90
2019-06-27T05:39:38.195Z,16.40
2019-06-27T05:42:07.615Z,15.83
2019-06-27T05:44:36.741Z,16.62
2019-06-27T05:47:06.536Z,15.75
2019-06-27T05:49:35.496Z,16.02
2019-06-27T05:52:04.731Z,16.50
2019-06-27T05:54:33.856Z,16.87
2019-06-27T05:57:02.987Z,16.10
2019-06-27T05:59:31.935Z,16.00
2019-06-27T06:02:01.161Z,15.23
2019-06-27T06:04:30.180Z,15.98
2019-06-27T06:06:59.455Z,15.95
2019-06-27T06:09:28.521Z,15.65
2019-06-27T06:11:57.905Z,15.18
2019-06-27T06:14:26.839Z,15.32
2019-06-27T06:16:55.824Z,15.03
2019-06-27T06:19:24.795Z,15.43
2019-06-27T06:21:53.713Z,15.03
2019-06-27T06:24:22.667Z,15.48
2019-06-27T06:26:51.544Z,15.32
2019-06-27T06:29:20.577Z,15.13
2019-06-27T06:31:49.691Z,15.58
2019-06-27T06:34:18.946Z,14.10
2019-06-27T06:36:47.797Z,14.87
2019-06-27T06:39:17.096Z,13.90
2019-06-27T06:41:46.392Z,13.80
2019-06-27T06:44:15.887Z,13.98
2019-06-27T06:46:44.950Z,13.93
2019-06-27T06:49:13.936Z,14.70
2019-06-27T06:51:42.966Z,14.45
2019-06-27T06:54:12.503Z,14.15
2019-06-27T06:56:41.583Z,15.03
2019-06-27T06:59:11.000Z,14.68
2019-06-27T07:01:39.997Z,16.75
2019-06-27T07:04:09.326Z,16.57
2019-06-27T07:06:38.588Z,17.23
2019-06-27T07:09:07.587Z,16.82
2019-06-27T07:11:37.233Z,16.65
2019-06-27T07:14:07.322Z,15.72
2019-06-27T07:16:36.835Z,16.15
2019-06-27T07:19:06.338Z,16.45
2019-06-27T07:21:35.289Z,15.83
2019-06-27T07:24:04.300Z,16.17
2019-06-27T07:26:34.236Z,16.70
2019-06-27T07:29:03.299Z,16.32
2019-06-27T07:31:32.205Z,16.20
2019-06-27T07:34:03.201Z,16.45
2019-06-27T07:36:32.200Z,15.60
2019-06-27T07:39:01.815Z,15.55
2019-06-27T07:41:30.874Z,16.90
2019-06-27T07:43:59.755Z,16.07
2019-06-27T07:46:28.735Z,16.70
2019-06-27T07:48:57.741Z,16.20
2019-06-27T07:51:27.511Z,16.67
2019-06-27T07:53:56.824Z,15.98
2019-06-27T07:56:26.176Z,15.83
2019-06-27T07:58:55.463Z,15.70
2019-06-27T08:01:34.443Z,16.27
2019-06-27T08:03:55.161Z,16.05
2019-06-27T08:06:24.516Z,15.50
2019-06-27T08:08:53.712Z,15.70
2019-06-27T08:11:23.036Z,15.50
2019-06-27T08:13:51.968Z,15.85
2019-06-27T08:16:20.907Z,14.95
2019-06-27T08:18:49.895Z,15.35
2019-06-27T08:21:18.892Z,16.50
2019-06-27T08:23:47.841Z,15.15
2019-06-27T08:26:17.234Z,15.80
2019-06-27T08:28:46.232Z,16.48
2019-06-27T08:31:15.243Z,16.17
2019-06-27T08:33:44.588Z,16.35
2019-06-27T08:36:13.582Z,14.75
2019-06-27T08:38:42.551Z,14.85
2019-06-27T08:41:14.001Z,15.15
2019-06-27T08:43:42.393Z,14.20
2019-06-27T08:46:11.470Z,14.70
2019-06-27T08:48:40.532Z,15.80
2019-06-27T08:51:09.766Z,16.12
2019-06-27T08:53:38.790Z,15.58
2019-06-27T08:56:07.964Z,15.32
2019-06-27T08:58:37.391Z,15.30
2019-06-27T09:01:06.419Z,15.15
2019-06-27T09:03:35.537Z,15.35
2019-06-27T09:06:05.165Z,15.45
2019-06-27T09:08:34.282Z,15.55
2019-06-27T09:11:03.380Z,15.20
2019-06-27T09:13:32.468Z,15.30
2019-06-27T09:16:01.439Z,15.75
2019-06-27T09:18:30.641Z,15.95
2019-06-27T09:20:59.987Z,14.25
2019-06-27T09:23:29.307Z,15.00
2019-06-27T09:25:58.611Z,14.98
2019-06-27T09:28:28.084Z,14.65
2019-06-27T09:30:57.233Z,14.25
2019-06-27T09:33:26.323Z,13.78
2019-06-27T09:35:55.463Z,14.25
2019-06-27T09:38:24.771Z,13.72
2019-06-27T09:40:54.202Z,14.87
2019-06-27T09:43:23.326Z,14.30
2019-06-27T09:45:52.445Z,15.58
2019-06-27T09:48:21.418Z,14.53
2019-06-27T09:50:50.496Z,14.63
2019-06-27T09:53:19.636Z,13.68
2019-06-27T09:55:48.698Z,14.65
2019-06-27T09:58:17.790Z,14.18
2019-06-27T10:00:46.779Z,13.80
2019-06-27T10:03:15.805Z,14.30
2019-06-27T10:05:44.899Z,13.28
2019-06-27T10:08:14.659Z,14.28
2019-06-27T10:10:44.103Z,13.43
2019-06-27T10:13:13.763Z,12.88
2019-06-27T10:15:42.720Z,11.90
2019-06-27T10:18:11.651Z,12.15
2019-06-27T10:20:40.746Z,12.90
2019-06-27T10:23:09.699Z,11.75
2019-06-27T10:25:39.037Z,12.55
2019-06-27T10:28:08.037Z,12.70
2019-06-27T10:30:37.136Z,11.88
2019-06-27T10:33:06.176Z,12.13
2019-06-27T10:35:35.322Z,12.63
2019-06-27T10:38:04.736Z,12.30
2019-06-27T10:40:33.763Z,12.53
2019-06-27T10:43:02.832Z,12.00
2019-06-27T10:45:31.741Z,11.97
2019-06-27T10:48:01.005Z,13.08
2019-06-27T10:50:30.053Z,11.73
2019-06-27T10:52:59.112Z,11.22
2019-06-27T10:55:28.549Z,11.05
2019-06-27T10:57:57.695Z,11.12
2019-06-27T11:00:29.067Z,11.53
2019-06-27T11:03:11.205Z,11.30
2019-06-27T11:05:29.032Z,10.82
2019-06-27T11:07:58.445Z,11.38
2019-06-27T11:10:27.579Z,10.13
2019-06-27T11:12:59.402Z,9.80
2019-06-27T11:15:27.784Z,8.93
2019-06-27T11:17:57.310Z,9.60
2019-06-27T11:20:26.521Z,9.63
2019-06-27T11:22:55.575Z,9.20
2019-06-27T11:25:24.981Z,9.78
2019-06-27T11:27:54.199Z,9.15
2019-06-27T11:30:23.615Z,9.45
2019-06-27T11:32:53.055Z,9.10
2019-06-27T11:35:22.126Z,10.25
2019-06-27T11:37:51.312Z,9.73
2019-06-27T11:40:22.200Z,8.88
2019-06-27T11:42:51.675Z,9.78
2019-06-27T11:45:20.740Z,9.45
2019-06-27T11:47:50.089Z,9.30
2019-06-27T11:50:19.140Z,9.33
2019-06-27T11:52:48.278Z,9.65
2019-06-27T11:55:17.963Z,9.85
2019-06-27T11:57:47.412Z,9.78
2019-06-27T12:00:18.373Z,9.70
2019-06-27T12:02:48.152Z,8.85
2019-06-27T12:05:17.247Z,9.40
2019-06-27T12:07:46.493Z,10.05
2019-06-27T12:10:16.975Z,10.32
2019-06-27T12:12:46.033Z,9.35
2019-06-27T12:15:15.576Z,9.58
2019-06-27T12:17:44.637Z,9.75
2019-06-27T12:20:14.604Z,9.38
2019-06-27T12:22:43.792Z,9.93
2019-06-27T12:25:13.242Z,8.45
2019-06-27T12:27:42.335Z,7.87
2019-06-27T12:30:12.765Z,8.15
2019-06-27T12:32:51.717Z,8.18
2019-06-27T12:35:13.229Z,7.87
2019-06-27T12:37:42.095Z,7.47
2019-06-27T12:40:12.048Z,8.00
2019-06-27T12:42:41.046Z,8.23
2019-06-27T12:45:12.154Z,8.70
2019-06-27T12:47:41.459Z,8.20
2019-06-27T12:50:12.125Z,7.87
2019-06-27T12:52:41.099Z,7.62
2019-06-27T12:55:11.019Z,7.50
2019-06-27T12:57:40.340Z,8.13
2019-06-27T13:00:10.200Z,11.85
2019-06-27T13:02:39.303Z,8.25
2019-06-27T13:05:08.398Z,8.58
2019-06-27T13:07:37.426Z,7.37
2019-06-27T13:10:10.017Z,8.00
2019-06-27T13:12:39.552Z,7.85
2019-06-27T13:15:08.610Z,7.80
2019-06-27T13:17:37.587Z,8.08
2019-06-27T13:20:07.303Z,8.00
2019-06-27T13:22:36.204Z,8.33
2019-06-27T13:25:05.882Z,8.70
2019-06-27T13:27:35.207Z,8.03
2019-06-27T13:30:05.367Z,8.03
2019-06-27T13:32:34.503Z,8.63
2019-06-27T13:35:03.611Z,8.83
2019-06-27T13:37:32.747Z,8.25
2019-06-27T13:40:04.594Z,8.40
2019-06-27T13:42:32.897Z,8.38
2019-06-27T13:45:02.153Z,8.28
2019-06-27T13:47:31.713Z,8.90
2019-06-27T13:50:00.848Z,8.93
2019-06-27T13:52:29.948Z,8.40
2019-06-27T13:54:58.942Z,8.20
2019-06-27T13:57:27.958Z,8.50
2019-06-27T13:59:57.088Z,11.28
2019-06-27T14:02:26.379Z,13.85
2019-06-27T14:04:57.412Z,14.23
2019-06-27T14:07:27.213Z,13.83
2019-06-27T14:09:57.410Z,14.43
2019-06-27T14:12:27.148Z,13.20
2019-06-27T14:15:00.061Z,14.43
2019-06-27T14:17:27.956Z,14.05
2019-06-27T14:19:56.918Z,13.65
2019-06-27T14:22:33.265Z,13.08
2019-06-27T14:24:56.777Z,14.05
2019-06-27T14:27:26.910Z,14.68
2019-06-27T14:29:56.749Z,13.98
2019-06-27T14:32:26.057Z,14.25
2019-06-27T14:34:55.658Z,14.58
2019-06-27T14:37:24.737Z,15.23
2019-06-27T14:39:56.540Z,13.98
2019-06-27T14:42:24.617Z,14.07
2019-06-27T14:44:53.931Z,13.62
2019-06-27T14:47:23.079Z,14.83
2019-06-27T14:49:52.255Z,14.35
2019-06-27T14:52:21.388Z,15.58
2019-06-27T14:54:50.822Z,14.85
2019-06-27T14:57:19.921Z,14.50
2019-06-27T14:59:49.585Z,14.45
2019-06-27T15:02:18.614Z,14.00
2019-06-27T15:04:47.719Z,14.33
2019-06-27T15:07:17.267Z,14.10
2019-06-27T15:09:46.471Z,15.08
2019-06-27T15:12:15.549Z,12.78
2019-06-27T15:14:44.533Z,13.62
2019-06-27T15:17:13.837Z,13.15
2019-06-27T15:19:42.984Z,12.78
2019-06-27T15:22:13.709Z,12.63
2019-06-27T15:24:42.833Z,12.35
2019-06-27T15:27:12.062Z,13.30
2019-06-27T15:29:42.962Z,12.37
2019-06-27T15:32:12.513Z,12.47
2019-06-27T15:34:41.542Z,12.23
2019-06-27T15:37:10.863Z,12.28
2019-06-27T15:39:39.782Z,12.93
2019-06-27T15:42:08.681Z,12.33
2019-06-27T15:44:38.239Z,12.90
2019-06-27T15:47:07.496Z,13.15
2019-06-27T15:49:36.539Z,12.95
2019-06-27T15:52:05.595Z,13.15
2019-06-27T15:54:34.590Z,12.50
2019-06-27T15:57:03.590Z,12.60
2019-06-27T15:59:32.484Z,12.35
2019-06-27T16:02:01.561Z,11.93
2019-06-27T16:04:34.219Z,12.98
2019-06-27T16:07:01.288Z,11.88
2019-06-27T16:09:30.423Z,12.25
2019-06-27T16:11:59.515Z,12.00
2019-06-27T16:14:28.549Z,12.33
2019-06-27T16:16:57.404Z,12.93
2019-06-27T16:19:26.320Z,12.37
2019-06-27T16:21:55.472Z,11.75
2019-06-27T16:24:24.346Z,12.90
2019-06-27T16:26:54.927Z,12.20
2019-06-27T16:29:23.916Z,12.20
2019-06-27T16:31:53.425Z,11.70
2019-06-27T16:34:23.934Z,11.60
2019-06-27T16:36:52.825Z,11.08
2019-06-27T16:39:24.146Z,11.20
2019-06-27T16:41:54.132Z,11.35
2019-06-27T16:44:25.601Z,12.25
2019-06-27T16:46:54.632Z,11.68
2019-06-27T16:49:24.439Z,11.68
2019-06-27T16:51:55.735Z,11.97
2019-06-27T16:54:25.738Z,12.43
2019-06-27T16:56:54.718Z,13.13
2019-06-27T16:59:26.015Z,13.13
2019-06-27T17:01:56.188Z,13.25
2019-06-27T17:04:26.380Z,12.10
2019-06-27T17:06:57.268Z,13.20
2019-06-27T17:09:31.494Z,12.37
2019-06-27T17:12:01.496Z,12.95
2019-06-27T17:14:30.438Z,12.65
2019-06-27T17:16:59.462Z,12.33
2019-06-27T17:19:28.658Z,13.55
2019-06-27T17:21:57.696Z,13.32
2019-06-27T17:24:26.749Z,12.82
2019-06-27T17:26:56.578Z,12.82
2019-06-27T17:29:26.183Z,13.40
2019-06-27T17:31:55.410Z,13.03
2019-06-27T17:34:24.422Z,13.18
2019-06-27T17:36:57.822Z,12.60
2019-06-27T17:39:24.328Z,13.70
2019-06-27T17:41:53.721Z,13.35
2019-06-27T17:44:23.242Z,13.53
2019-06-27T17:46:52.428Z,13.45
2019-06-27T17:49:21.416Z,13.10
2019-06-27T17:51:50.661Z,13.22
2019-06-27T17:54:20.098Z,13.08
2019-06-27T17:56:49.137Z,12.68
2019-06-27T17:59:18.373Z,12.73
2019-06-27T18:01:47.857Z,13.35
2019-06-27T18:04:17.094Z,13.32
2019-06-27T18:06:47.071Z,13.48
2019-06-27T18:09:16.489Z,13.55
2019-06-27T18:11:45.552Z,13.28
2019-06-27T18:14:14.924Z,14.50
2019-06-27T18:16:43.841Z,14.23
2019-06-27T18:19:12.906Z,15.03
2019-06-27T18:21:41.908Z,14.20
2019-06-27T18:24:10.862Z,14.28
2019-06-27T18:26:39.778Z,14.35
2019-06-27T18:29:09.060Z,14.00
2019-06-27T18:31:37.986Z,13.65
2019-06-27T18:34:07.310Z,14.60
2019-06-27T18:36:36.310Z,13.78
2019-06-27T18:39:06.550Z,13.98
2019-06-27T18:41:35.624Z,14.60
2019-06-27T18:44:04.661Z,13.88
2019-06-27T18:46:34.320Z,14.75
2019-06-27T18:49:04.196Z,14.75
2019-06-27T18:51:33.545Z,14.50
2019-06-27T18:54:02.714Z,14.58
2019-06-27T18:56:31.737Z,14.13
2019-06-27T18:59:00.740Z,13.62
2019-06-27T19:01:30.155Z,14.65
2019-06-27T19:03:59.374Z,14.38
2019-06-27T19:06:28.383Z,14.60
2019-06-27T19:08:57.456Z,14.80
2019-06-27T19:11:26.392Z,14.90
2019-06-27T19:13:55.462Z,14.57
2019-06-27T19:16:24.448Z,15.23
2019-06-27T19:18:55.666Z,15.35
2019-06-27T19:21:32.103Z,14.28
2019-06-27T19:24:03.067Z,14.65
2019-06-27T19:26:32.706Z,15.35
2019-06-27T19:29:02.187Z,14.05
2019-06-27T19:31:32.031Z,14.90
2019-06-27T19:34:01.031Z,15.30
2019-06-27T19:36:30.021Z,15.83
2019-06-27T19:38:59.770Z,15.90
2019-06-27T19:41:28.873Z,15.80
2019-06-27T19:43:58.017Z,15.10
2019-06-27T19:46:27.051Z,15.67
2019-06-27T19:48:56.122Z,15.28
2019-06-27T19:51:25.351Z,16.17
2019-06-27T19:53:57.875Z,14.78
2019-06-27T19:56:25.136Z,15.03
2019-06-27T19:58:54.301Z,15.93
2019-06-27T20:01:23.306Z,14.50
2019-06-27T20:03:52.655Z,14.95
2019-06-27T20:06:21.937Z,16.10
2019-06-27T20:08:51.052Z,15.05
2019-06-27T20:11:20.256Z,16.17
2019-06-27T20:13:49.380Z,15.03
2019-06-27T20:16:18.332Z,14.75
2019-06-27T20:18:47.939Z,15.80
2019-06-27T20:21:17.375Z,15.48
2019-06-27T20:23:46.502Z,14.63
2019-06-27T20:26:15.614Z,15.20
2019-06-27T20:28:44.630Z,15.27
2019-06-27T20:31:13.631Z,14.45
2019-06-27T20:33:42.976Z,15.87
2019-06-27T20:36:12.403Z,14.33
2019-06-27T20:38:41.527Z,13.77
2019-06-27T20:41:10.667Z,14.57
2019-06-27T20:43:40.162Z,15.23
2019-06-27T20:46:09.449Z,14.97
2019-06-27T20:48:38.994Z,15.27
2019-06-27T20:51:08.467Z,15.57
2019-06-27T20:53:37.460Z,15.63
2019-06-27T20:56:06.625Z,15.43
2019-06-27T20:58:35.716Z,15.47
2019-06-27T21:01:04.997Z,15.00
2019-06-27T21:03:34.231Z,15.43
2019-06-27T21:06:03.842Z,15.73
2019-06-27T21:08:32.869Z,15.17
2019-06-27T21:11:01.930Z,15.33
2019-06-27T21:13:30.918Z,15.83
2019-06-27T21:16:00.903Z,15.03
2019-06-27T21:18:30.113Z,15.57
2019-06-27T21:20:59.057Z,15.47
2019-06-27T21:23:28.131Z,14.43
2019-06-27T21:25:57.408Z,15.57
2019-06-27T21:28:26.829Z,15.70
2019-06-27T21:30:55.853Z,15.43
2019-06-27T21:33:24.848Z,14.47
2019-06-27T21:35:53.716Z,15.50
2019-06-27T21:38:22.727Z,15.40
2019-06-27T21:40:51.760Z,15.93
2019-06-27T21:43:20.922Z,16.07
2019-06-27T21:45:50.979Z,15.90
2019-06-27T21:48:20.030Z,15.80
2019-06-27T21:50:48.978Z,16.47
2019-06-27T21:53:17.935Z,16.67
2019-06-27T21:55:46.818Z,16.23
2019-06-27T21:58:15.783Z,16.53
2019-06-27T22:00:44.765Z,15.70
2019-06-27T22:03:15.192Z,15.60
2019-06-27T22:05:44.115Z,14.23
2019-06-27T22:08:13.201Z,13.27
2019-06-27T22:10:42.106Z,13.97
2019-06-27T22:13:11.096Z,14.37
2019-06-27T22:15:40.368Z,13.27
2019-06-27T22:18:09.470Z,13.27
2019-06-27T22:20:39.705Z,13.27
2019-06-27T22:23:08.840Z,13.67
2019-06-27T22:25:40.692Z,13.17
2019-06-27T22:28:08.446Z,13.47
2019-06-27T22:30:37.394Z,13.87
2019-06-27T22:33:06.273Z,13.90
2019-06-27T22:35:35.300Z,12.93
2019-06-27T22:38:22.030Z,12.60
2019-06-27T22:41:08.932Z,11.97
2019-06-27T22:43:55.656Z,12.63
2019-06-27T22:46:42.721Z,13.53
2019-06-27T22:49:13.484Z,11.97
2019-06-27T22:51:47.333Z,11.50
2019-06-27T22:54:17.798Z,9.60
2019-06-27T22:56:46.818Z,10.17
2019-06-27T22:59:15.710Z,9.40
2019-06-27T23:01:44.614Z,9.60
2019-06-27T23:04:13.589Z,8.60
2019-06-27T23:06:42.516Z,8.83
2019-06-27T23:09:13.140Z,9.20
2019-06-27T23:11:42.066Z,9.50
2019-06-27T23:14:13.666Z,9.23
2019-06-27T23:16:42.752Z,9.17
2019-06-27T23:19:12.078Z,8.83
2019-06-27T23:21:40.957Z,9.03
2019-06-27T23:24:09.932Z,9.03
2019-06-27T23:26:38.869Z,8.90
2019-06-27T23:29:07.761Z,8.80
2019-06-27T23:31:36.746Z,9.80
2019-06-27T23:34:05.633Z,9.70
2019-06-27T23:36:34.597Z,10.27
2019-06-27T23:39:04.127Z,11.93
2019-06-27T23:41:33.058Z,11.97
2019-06-27T23:44:02.000Z,10.17
2019-06-27T23:46:41.465Z,10.30
2019-06-27T23:49:12.199Z,9.77
2019-06-27T23:51:44.528Z,9.83
2019-06-27T23:54:13.465Z,9.50
2019-06-27T23:56:42.400Z,9.03
2019-06-27T23:59:11.365Z,8.60
